Time;durP1;ratioP1;P1;durP2;ratioP2;P2;SDS_P1;SDS_P2;PMS_P1;PMS_P2;Temp;Humidity;BMP_temperature;BMP_pressure;BME280_temperature;BME280_humidity;BME280_pressure;Samples;Min_cycle;Max_cycle;Signal;HPM_P1;HPM_P2
2022/05/15 00:02:43;;;;;;;24.97;7.00;;;9.40;82.80;;;;;;5056120;28;20253;-87
2022/05/15 00:05:09;;;;;;;31.23;8.20;;;9.20;82.30;;;;;;5037849;28;20171;-88
2022/05/15 00:07:35;;;;;;;27.77;8.87;;;8.90;82.40;;;;;;5055723;28;20172;-87
2022/05/15 00:10:02;;;;;;;31.23;8.30;;;8.80;82.90;;;;;;5037717;28;20334;-87
2022/05/15 00:12:28;;;;;;;20.93;7.07;;;8.80;83.10;;;;;;5056198;28;20334;-87
2022/05/15 00:14:53;;;;;;;25.93;8.50;;;8.80;83.00;;;;;;5037931;28;20176;-88
2022/05/15 00:17:19;;;;;;;22.83;7.87;;;8.80;82.80;;;;;;5039250;28;20589;-88
2022/05/15 00:19:44;;;;;;;19.03;8.37;;;8.80;82.90;;;;;;5039734;28;20176;-88
2022/05/15 00:22:10;;;;;;;19.50;7.70;;;8.70;82.70;;;;;;5056204;28;20233;-88
2022/05/15 00:24:37;;;;;;;13.37;8.17;;;8.70;82.70;;;;;;5056264;28;20179;-88
2022/05/15 00:27:03;;;;;;;8.53;6.60;;;8.70;83.10;;;;;;5056030;28;20178;-90
2022/05/15 00:29:30;;;;;;;23.83;7.10;;;8.40;83.40;;;;;;5038233;28;20175;-88
2022/05/15 00:31:55;;;;;;;22.23;4.17;;;8.10;84.30;;;;;;5037591;28;20173;-87
2022/05/15 00:34:21;;;;;;;35.80;5.87;;;8.00;85.40;;;;;;5037218;28;20210;-87
2022/05/15 00:36:46;;;;;;;7.33;5.50;;;8.00;86.30;;;;;;5037347;28;20235;-87
2022/05/15 00:39:12;;;;;;;10.87;5.67;;;8.10;86.50;;;;;;5053898;28;20191;-88
2022/05/15 00:41:38;;;;;;;6.33;4.50;;;8.10;86.50;;;;;;5037115;28;20266;-87
2022/05/15 00:44:05;;;;;;;5.47;3.83;;;8.20;86.40;;;;;;5054999;28;20207;-88
2022/05/15 00:46:37;;;;;;;5.60;4.43;;;8.30;86.30;;;;;;5037210;28;20556;-88
2022/05/15 00:49:12;;;;;;;136.70;24.43;;;8.30;86.00;;;;;;5037414;28;20180;-87
2022/05/15 00:51:48;;;;;;;183.93;26.23;;;7.80;84.40;;;;;;5055261;28;20207;-88
2022/05/15 00:54:13;;;;;;;51.90;21.47;;;7.70;85.00;;;;;;5037232;28;20634;-88
2022/05/15 00:56:45;;;;;;;30.33;14.93;;;7.80;85.30;;;;;;5054884;28;20171;-86
2022/05/15 00:59:14;;;;;;;199.37;18.47;;;7.90;85.10;;;;;;5037310;28;20176;-88
2022/05/15 01:01:40;;;;;;;117.53;10.10;;;8.00;84.90;;;;;;5053891;28;20210;-88
2022/05/15 01:04:06;;;;;;;118.13;11.07;;;7.70;85.40;;;;;;5036738;28;20210;-88
2022/05/15 01:06:35;;;;;;;207.20;13.53;;;7.40;86.60;;;;;;5037076;28;20190;-87
2022/05/15 01:09:02;;;;;;;19.03;7.23;;;7.40;87.20;;;;;;5036696;28;20183;-88
2022/05/15 01:11:28;;;;;;;26.17;5.60;;;7.60;87.60;;;;;;5036545;28;20203;-87
2022/05/15 01:13:54;;;;;;;108.77;7.60;;;7.70;87.50;;;;;;5036655;28;20548;-88
2022/05/15 01:16:23;;;;;;;6.37;3.90;;;7.70;87.30;;;;;;5036545;28;20180;-87
2022/05/15 01:18:48;;;;;;;17.50;3.70;;;7.80;87.50;;;;;;5036672;28;20180;-88
2022/05/15 01:21:30;;;;;;;122.97;7.53;;;7.80;87.30;;;;;;5035743;28;20207;-85
2022/05/15 01:23:56;;;;;;;5.20;3.17;;;7.80;87.20;;;;;;5054194;28;20195;-88
2022/05/15 01:26:23;;;;;;;5.03;3.30;;;7.90;87.60;;;;;;5036128;28;20263;-88
2022/05/15 01:28:49;;;;;;;11.70;3.47;;;8.00;87.50;;;;;;5036186;28;20254;-87
2022/05/15 01:31:16;;;;;;;57.60;4.80;;;8.10;87.30;;;;;;5054014;28;20188;-88
2022/05/15 01:33:45;;;;;;;9.23;4.23;;;8.10;87.30;;;;;;5054442;28;20175;-88
2022/05/15 01:36:10;;;;;;;15.73;5.20;;;8.20;87.70;;;;;;5036381;28;20190;-88
2022/05/15 01:38:36;;;;;;;11.97;5.17;;;8.30;87.70;;;;;;5036218;28;20579;-87
2022/05/15 01:41:02;;;;;;;184.83;10.87;;;8.30;87.50;;;;;;5036139;28;20631;-88
2022/05/15 01:43:27;;;;;;;196.33;13.53;;;8.30;87.50;;;;;;5036132;28;20286;-88
2022/05/15 01:45:53;;;;;;;161.10;14.13;;;8.30;88.50;;;;;;5036076;28;20187;-88
2022/05/15 01:48:18;;;;;;;16.83;9.33;;;8.40;88.90;;;;;;5036214;28;20182;-88
2022/05/15 01:50:44;;;;;;;92.07;8.27;;;8.40;89.00;;;;;;5035940;28;20634;-88
2022/05/15 01:53:09;;;;;;;57.10;8.47;;;8.50;89.10;;;;;;5035940;28;20185;-87
2022/05/15 01:55:35;;;;;;;57.33;9.90;;;8.50;89.20;;;;;;5053904;28;20186;-88
2022/05/15 01:58:01;;;;;;;52.10;8.70;;;8.40;89.30;;;;;;5052881;28;20203;-88
2022/05/15 02:00:27;;;;;;;90.33;9.03;;;8.30;89.50;;;;;;5054297;28;20202;-89
2022/05/15 02:02:53;;;;;;;78.10;9.53;;;8.20;89.40;;;;;;5035979;28;20200;-88
2022/05/15 02:05:20;;;;;;;95.17;7.83;;;8.10;89.60;;;;;;5053639;28;20183;-87
2022/05/15 02:07:47;;;;;;;70.90;6.80;;;8.00;89.80;;;;;;5036536;28;20187;-88
2022/05/15 02:10:13;;;;;;;52.97;7.70;;;7.90;89.80;;;;;;5035699;28;20200;-88
2022/05/15 02:12:38;;;;;;;50.03;7.40;;;7.90;90.00;;;;;;5035818;28;20195;-87
2022/05/15 02:15:05;;;;;;;31.23;6.70;;;7.80;90.10;;;;;;5054050;28;20214;-87
2022/05/15 02:17:31;;;;;;;37.50;7.30;;;7.80;90.40;;;;;;5053734;28;20176;-87
2022/05/15 02:19:57;;;;;;;54.33;7.00;;;7.80;90.40;;;;;;5053558;28;20200;-88
2022/05/15 02:22:23;;;;;;;40.87;6.43;;;7.80;90.50;;;;;;5053492;28;20669;-87
2022/05/15 02:24:48;;;;;;;46.00;6.90;;;7.70;90.60;;;;;;5035807;28;20179;-87
2022/05/15 02:27:14;;;;;;;39.10;6.40;;;7.60;90.70;;;;;;5053805;28;20176;-88
2022/05/15 02:29:40;;;;;;;13.97;5.97;;;7.50;90.80;;;;;;5035991;28;20168;-88
2022/05/15 02:32:06;;;;;;;34.37;7.10;;;7.50;90.90;;;;;;5037744;28;20669;-88
2022/05/15 02:34:32;;;;;;;32.47;6.67;;;7.50;91.00;;;;;;5039529;28;20176;-88
2022/05/15 02:36:58;;;;;;;18.07;5.67;;;7.50;91.20;;;;;;5056771;28;20180;-87
2022/05/15 02:39:23;;;;;;;23.30;6.23;;;7.40;91.20;;;;;;5057973;28;20168;-87
2022/05/15 02:41:49;;;;;;;30.53;6.20;;;7.40;91.20;;;;;;5039787;28;20204;-88
2022/05/15 02:44:14;;;;;;;9.30;6.03;;;7.30;91.30;;;;;;5057495;28;20207;-88
2022/05/15 02:46:40;;;;;;;20.93;6.90;;;7.20;91.40;;;;;;5039891;28;20176;-88
2022/05/15 02:51:49;;;;;;;31.30;6.47;;;7.20;91.60;;;;;;5057602;28;20635;-87
2022/05/15 02:54:15;;;;;;;52.27;7.43;;;7.20;91.60;;;;;;5057231;28;20184;-87
2022/05/15 02:56:42;;;;;;;22.47;8.60;;;7.20;91.70;;;;;;5039213;28;20180;-88
2022/05/15 02:59:07;;;;;;;33.80;8.67;;;7.20;91.90;;;;;;5039399;28;20184;-88
2022/05/15 03:01:34;;;;;;;8.40;7.43;;;7.30;92.00;;;;;;5039621;28;20211;-88
2022/05/15 03:04:00;;;;;;;8.33;7.57;;;7.40;92.00;;;;;;5039460;28;20577;-88
2022/05/15 03:06:26;;;;;;;7.83;7.13;;;7.50;92.00;;;;;;5056065;28;20298;-88
2022/05/15 03:08:52;;;;;;;6.80;6.20;;;7.60;92.00;;;;;;5039095;28;20191;-88
2022/05/15 03:11:18;;;;;;;6.33;5.73;;;7.60;91.90;;;;;;5039254;28;20188;-87
2022/05/15 03:13:44;;;;;;;5.87;5.30;;;7.60;91.90;;;;;;5038983;28;20535;-87
2022/05/15 03:16:12;;;;;;;6.13;5.50;;;7.70;91.80;;;;;;5039977;28;20176;-88
2022/05/15 03:18:41;;;;;;;7.73;5.90;;;7.70;91.70;;;;;;5039234;28;20175;-87
2022/05/15 03:21:08;;;;;;;5.90;5.30;;;7.70;91.60;;;;;;5039059;28;20228;-88
2022/05/15 03:23:33;;;;;;;5.50;5.03;;;7.70;91.60;;;;;;5039003;28;20223;-88
2022/05/15 03:25:59;;;;;;;5.53;4.53;;;7.60;91.20;;;;;;5039181;28;20185;-88
2022/05/15 03:28:25;;;;;;;21.37;4.63;;;7.30;90.60;;;;;;5038876;28;20183;-87
2022/05/15 03:30:50;;;;;;;17.63;5.40;;;7.10;90.40;;;;;;5056878;28;20606;-88
2022/05/15 03:33:16;;;;;;;18.23;4.43;;;7.00;90.40;;;;;;5038891;28;20278;-87
2022/05/15 03:35:42;;;;;;;29.70;5.33;;;6.90;90.40;;;;;;5039014;28;20207;-88
2022/05/15 03:38:08;;;;;;;33.03;5.63;;;6.80;90.50;;;;;;5056663;28;20226;-88
2022/05/15 03:40:35;;;;;;;31.53;6.70;;;6.90;90.60;;;;;;5056439;28;20203;-88
2022/05/15 03:43:00;;;;;;;26.37;6.30;;;6.80;90.70;;;;;;5037663;28;20302;-87
2022/05/15 03:45:26;;;;;;;18.57;6.67;;;6.90;90.90;;;;;;5038430;28;20238;-88
2022/05/15 03:47:54;;;;;;;12.33;6.37;;;6.90;91.00;;;;;;5038437;28;20187;-87
2022/05/15 03:50:27;;;;;;;10.40;6.43;;;7.00;91.10;;;;;;5038271;28;20256;-88
2022/05/15 03:52:53;;;;;;;8.30;6.67;;;7.00;91.10;;;;;;5056265;28;20171;-88
2022/05/15 03:55:18;;;;;;;14.23;7.23;;;7.00;91.20;;;;;;5038361;28;20176;-88
2022/05/15 03:57:45;;;;;;;39.63;6.77;;;7.00;91.20;;;;;;5038092;28;20247;-88
2022/05/15 04:00:14;;;;;;;11.20;6.30;;;7.00;91.10;;;;;;5056244;28;20689;-88
2022/05/15 04:02:41;;;;;;;16.67;7.13;;;7.00;91.30;;;;;;5055102;28;20565;-88
2022/05/15 04:05:10;;;;;;;28.97;7.70;;;7.00;91.40;;;;;;5038159;28;20275;-88
2022/05/15 04:07:43;;;;;;;8.80;8.00;;;7.10;91.50;;;;;;5037880;28;20176;-87
2022/05/15 04:10:10;;;;;;;23.93;8.87;;;7.20;91.50;;;;;;5037686;28;20291;-88
2022/05/15 04:12:36;;;;;;;45.27;8.50;;;7.30;91.60;;;;;;5055838;28;20208;-88
2022/05/15 04:15:02;;;;;;;11.60;8.67;;;7.40;91.60;;;;;;5037709;28;20203;-88
2022/05/15 04:17:27;;;;;;;14.13;8.17;;;7.40;91.60;;;;;;5054364;28;20202;-88
2022/05/15 04:19:53;;;;;;;25.83;7.30;;;7.50;91.70;;;;;;5038050;28;20196;-88
2022/05/15 04:22:18;;;;;;;40.87;7.97;;;7.50;91.60;;;;;;5037717;28;20642;-87
2022/05/15 04:24:44;;;;;;;7.73;6.77;;;7.50;91.60;;;;;;5038189;28;20179;-88
2022/05/15 04:27:09;;;;;;;21.90;7.50;;;7.60;91.60;;;;;;5055973;28;20183;-87
2022/05/15 04:29:35;;;;;;;16.80;7.13;;;7.50;91.60;;;;;;5055726;28;20175;-88
2022/05/15 04:32:00;;;;;;;9.17;7.97;;;7.50;91.60;;;;;;5037685;28;20176;-88
2022/05/15 04:34:27;;;;;;;8.73;7.50;;;7.60;91.70;;;;;;5054078;28;20192;-87
2022/05/15 04:36:53;;;;;;;15.47;8.33;;;7.70;91.80;;;;;;5037527;28;20249;-87
2022/05/15 04:39:19;;;;;;;11.07;7.10;;;7.70;91.70;;;;;;5037413;28;20654;-88
2022/05/15 04:41:45;;;;;;;11.90;7.93;;;7.60;91.70;;;;;;5055316;28;20200;-87
2022/05/15 04:44:11;;;;;;;21.23;8.20;;;7.50;91.80;;;;;;5054926;28;20207;-88
2022/05/15 04:46:37;;;;;;;12.67;8.90;;;7.60;91.90;;;;;;5037169;28;20182;-88
2022/05/15 04:49:04;;;;;;;11.30;8.73;;;7.60;92.00;;;;;;5055179;28;20180;-88
2022/05/15 04:51:29;;;;;;;10.13;9.00;;;7.60;92.00;;;;;;5036502;28;20223;-88
2022/05/15 04:53:55;;;;;;;23.30;9.83;;;7.70;92.10;;;;;;5036552;28;20180;-87
2022/05/15 04:56:21;;;;;;;14.60;10.43;;;7.60;92.20;;;;;;5036705;28;20227;-87
2022/05/15 04:58:46;;;;;;;19.20;10.17;;;7.60;92.30;;;;;;5054964;28;20314;-87
2022/05/15 05:01:13;;;;;;;16.13;10.63;;;7.70;92.50;;;;;;5036817;28;20206;-88
2022/05/15 05:03:38;;;;;;;13.13;11.90;;;7.70;92.50;;;;;;5037003;28;20646;-88
2022/05/15 05:06:04;;;;;;;11.93;10.90;;;7.80;92.60;;;;;;5054759;28;20176;-88
2022/05/15 05:08:30;;;;;;;12.17;11.03;;;8.00;92.70;;;;;;5036976;28;20184;-88
2022/05/15 05:10:55;;;;;;;32.63;11.20;;;8.00;92.70;;;;;;5037191;28;20199;-87
2022/05/15 05:13:21;;;;;;;24.70;10.90;;;8.20;92.70;;;;;;5036744;28;20643;-88
2022/05/15 05:15:46;;;;;;;22.40;10.97;;;8.30;92.70;;;;;;5037073;28;20238;-88
2022/05/15 05:18:17;;;;;;;31.33;11.77;;;8.30;92.80;;;;;;5054901;28;20168;-88
2022/05/15 05:20:44;;;;;;;24.63;11.33;;;8.30;92.80;;;;;;5037253;28;20195;-87
2022/05/15 05:23:10;;;;;;;21.00;11.07;;;8.30;92.90;;;;;;5037450;28;20215;-88
2022/05/15 05:25:35;;;;;;;32.77;11.70;;;8.40;92.90;;;;;;5036894;28;20184;-88
2022/05/15 05:28:01;;;;;;;28.27;12.63;;;8.50;93.00;;;;;;5054965;28;20253;-87
2022/05/15 05:30:27;;;;;;;49.87;12.50;;;8.50;93.00;;;;;;5054428;28;20192;-87
2022/05/15 05:32:53;;;;;;;33.17;12.10;;;8.70;93.20;;;;;;5036486;28;20180;-88
2022/05/15 05:35:20;;;;;;;30.30;12.13;;;8.70;93.20;;;;;;5054126;28;20180;-87
2022/05/15 05:37:46;;;;;;;32.63;11.90;;;8.70;93.20;;;;;;5052954;28;20215;-87
2022/05/15 05:40:15;;;;;;;40.10;11.70;;;8.70;93.30;;;;;;5036052;28;20231;-87
2022/05/15 05:42:40;;;;;;;25.20;12.83;;;8.70;93.30;;;;;;5036007;28;20211;-87
2022/05/15 05:45:06;;;;;;;64.60;11.50;;;8.80;93.50;;;;;;5036251;28;20178;-87
2022/05/15 05:47:33;;;;;;;36.37;12.63;;;8.80;93.40;;;;;;5036397;28;20234;-88
2022/05/15 05:49:58;;;;;;;56.90;13.30;;;8.90;93.60;;;;;;5053777;28;20199;-87
2022/05/15 05:52:25;;;;;;;40.03;13.27;;;8.90;93.60;;;;;;5036025;28;20275;-87
2022/05/15 05:54:51;;;;;;;21.83;12.93;;;9.10;93.70;;;;;;5036058;28;20589;-86
2022/05/15 05:57:17;;;;;;;18.83;12.07;;;9.20;93.70;;;;;;5054423;28;20653;-88
2022/05/15 05:59:43;;;;;;;36.03;12.90;;;9.30;93.80;;;;;;5036376;28;20183;-88
2022/05/15 06:02:09;;;;;;;22.50;11.30;;;9.30;93.80;;;;;;5036523;28;20658;-88
2022/05/15 06:04:41;;;;;;;21.60;11.33;;;9.40;93.80;;;;;;5036008;28;20210;-88
2022/05/15 06:07:20;;;;;;;13.93;10.23;;;9.40;93.80;;;;;;5035493;28;20172;-89
2022/05/15 06:09:47;;;;;;;27.00;12.23;;;9.40;93.90;;;;;;5035998;28;20186;-87
2022/05/15 06:12:15;;;;;;;21.30;11.77;;;9.40;93.80;;;;;;5035980;28;20188;-88
2022/05/15 06:14:41;;;;;;;30.33;12.73;;;9.50;94.00;;;;;;5036029;28;20183;-88
2022/05/15 06:17:07;;;;;;;24.07;12.00;;;9.60;94.10;;;;;;5054111;28;20178;-88
2022/05/15 06:19:33;;;;;;;38.57;12.00;;;9.60;94.10;;;;;;5035795;28;20524;-88
2022/05/15 06:21:58;;;;;;;42.73;16.50;;;9.80;94.20;;;;;;5035818;28;20330;-87
2022/05/15 06:24:25;;;;;;;41.30;15.57;;;9.80;94.20;;;;;;5053568;28;20206;-88
2022/05/15 06:26:52;;;;;;;43.20;17.07;;;9.70;94.20;;;;;;5035817;28;20172;-87
2022/05/15 06:29:17;;;;;;;40.23;18.93;;;9.80;94.30;;;;;;5036064;28;20172;-90
2022/05/15 06:31:43;;;;;;;37.27;18.97;;;9.90;94.40;;;;;;5035919;28;20202;-88
2022/05/15 06:34:08;;;;;;;44.43;21.83;;;10.10;94.50;;;;;;5035875;28;20184;-88
2022/05/15 06:36:34;;;;;;;54.90;21.23;;;10.30;94.60;;;;;;5053741;28;20259;-88
2022/05/15 06:38:59;;;;;;;49.37;20.70;;;10.20;94.40;;;;;;5035494;28;20612;-87
2022/05/15 06:41:25;;;;;;;49.83;24.20;;;10.20;94.40;;;;;;5035630;28;20286;-87
2022/05/15 06:43:50;;;;;;;51.77;21.43;;;10.30;94.50;;;;;;5035585;28;20241;-88
2022/05/15 06:46:16;;;;;;;53.57;23.80;;;10.50;94.60;;;;;;5035646;28;20172;-88
2022/05/15 06:48:42;;;;;;;50.67;23.53;;;10.50;94.50;;;;;;5035701;28;20213;-87
2022/05/15 06:51:07;;;;;;;52.03;24.37;;;10.70;94.60;;;;;;5035306;28;20214;-88
2022/05/15 06:53:34;;;;;;;49.37;23.13;;;10.90;94.70;;;;;;5053288;28;20180;-88
2022/05/15 06:58:43;;;;;;;43.87;21.23;;;11.30;94.70;;;;;;5054080;28;20535;-87
2022/05/15 07:01:09;;;;;;;48.40;19.37;;;11.50;94.70;;;;;;5035971;28;20196;-88
2022/05/15 07:03:35;;;;;;;34.60;18.07;;;11.60;94.50;;;;;;5035303;28;20200;-88
2022/05/15 07:06:01;;;;;;;34.97;17.07;;;11.60;94.30;;;;;;5035751;28;20172;-88
2022/05/15 07:08:27;;;;;;;37.07;14.67;;;11.80;94.30;;;;;;5035627;28;20183;-88
2022/05/15 07:10:53;;;;;;;35.97;13.47;;;11.90;93.90;;;;;;5053139;28;20188;-88
2022/05/15 07:13:19;;;;;;;29.07;11.90;;;12.00;93.60;;;;;;5035527;28;20267;-87
2022/05/15 07:15:44;;;;;;;29.03;9.70;;;12.20;92.90;;;;;;5053161;28;20184;-87
2022/05/15 07:18:10;;;;;;;21.40;9.27;;;12.30;91.90;;;;;;5035889;28;20191;-89
2022/05/15 07:20:36;;;;;;;20.60;7.83;;;12.30;90.90;;;;;;5039471;28;20192;-88
2022/05/15 07:23:02;;;;;;;16.47;6.67;;;12.50;89.80;;;;;;5039002;28;20200;-86
2022/05/15 07:25:28;;;;;;;16.83;5.23;;;12.60;89.20;;;;;;5039434;28;20172;-88
2022/05/15 07:27:54;;;;;;;18.27;5.53;;;12.80;88.20;;;;;;5039050;28;20164;-88
2022/05/15 07:30:20;;;;;;;18.70;5.43;;;13.00;86.50;;;;;;5039248;28;20269;-88
2022/05/15 07:32:46;;;;;;;16.60;4.37;;;13.10;84.90;;;;;;5039342;28;20210;-89
2022/05/15 07:35:14;;;;;;;15.77;5.30;;;13.20;84.10;;;;;;5056980;28;20175;-88
2022/05/15 07:37:39;;;;;;;16.13;4.80;;;13.50;83.40;;;;;;5039016;28;20649;-87
2022/05/15 07:40:05;;;;;;;19.23;5.07;;;13.70;82.20;;;;;;5039083;28;20196;-89
2022/05/15 07:42:31;;;;;;;16.17;4.70;;;13.70;81.60;;;;;;5040517;28;20180;-89
2022/05/15 07:44:59;;;;;;;20.67;6.33;;;13.80;81.70;;;;;;5040266;28;20186;-89
2022/05/15 07:47:25;;;;;;;13.37;4.40;;;14.00;81.30;;;;;;5040661;28;20238;-89
2022/05/15 07:49:51;;;;;;;14.17;4.63;;;14.20;80.80;;;;;;5041145;28;20204;-89
2022/05/15 07:52:16;;;;;;;13.20;4.13;;;14.20;79.20;;;;;;5041189;28;20318;-89
2022/05/15 07:54:42;;;;;;;11.37;4.00;;;14.20;78.70;;;;;;5040970;28;20184;-89
2022/05/15 07:57:08;;;;;;;10.27;3.33;;;14.30;77.80;;;;;;5040163;28;20184;-90
2022/05/15 07:59:33;;;;;;;12.50;3.33;;;14.30;73.80;;;;;;5040640;28;20535;-89
2022/05/15 08:02:02;;;;;;;11.37;3.97;;;14.40;73.30;;;;;;5040418;28;20549;-89
2022/05/15 08:04:28;;;;;;;9.50;3.37;;;14.40;72.70;;;;;;5040317;28;20282;-87
2022/05/15 08:09:37;;;;;;;11.80;3.33;;;14.40;71.40;;;;;;5057717;28;20183;-88
2022/05/15 08:12:03;;;;;;;8.77;2.77;;;14.30;71.90;;;;;;5054900;28;20663;-88
2022/05/15 08:14:29;;;;;;;7.97;2.73;;;14.40;72.60;;;;;;5056364;28;20188;-87
2022/05/15 08:16:55;;;;;;;9.23;2.97;;;14.70;72.40;;;;;;5038884;28;20538;-88
2022/05/15 08:24:49;;;;;;;5.00;2.13;;;14.80;66.60;;;;;;5056002;28;20253;-88
2022/05/15 08:27:14;;;;;;;8.10;2.47;;;15.00;67.90;;;;;;5038897;28;20172;-88
2022/05/15 08:29:40;;;;;;;6.90;2.47;;;15.20;66.60;;;;;;5038235;28;20172;-87
2022/05/15 08:32:06;;;;;;;7.73;2.70;;;15.10;67.70;;;;;;5056484;28;20251;-88
2022/05/15 08:34:32;;;;;;;5.17;2.13;;;15.20;66.60;;;;;;5056196;28;20180;-88
2022/05/15 08:37:00;;;;;;;6.03;1.95;;;15.30;64.70;;;;;;5057978;28;20230;-90
2022/05/15 08:39:27;;;;;;;4.40;2.13;;;15.50;63.30;;;;;;5039048;28;20219;-90
2022/05/15 08:42:07;;;;;;;6.38;2.30;;;15.50;62.10;;;;;;5040099;28;20199;-89
2022/05/15 08:44:36;;;;;;;13.25;2.95;;;15.60;62.80;;;;;;5056352;28;20552;-89
2022/05/15 08:47:11;;;;;;;6.60;2.45;;;15.70;64.90;;;;;;5056993;28;20172;-89
2022/05/15 08:49:40;;;;;;;7.32;2.40;;;15.80;62.20;;;;;;5056348;28;20565;-89
2022/05/15 08:52:15;;;;;;;7.13;2.20;;;15.80;61.80;;;;;;5056281;28;20180;-88
2022/05/15 08:55:15;;;;;;;6.97;2.40;;;16.10;63.90;;;;;;5055275;28;20167;-88
2022/05/15 08:57:56;;;;;;;6.47;2.00;;;16.40;62.80;;;;;;5031375;28;20314;-89
2022/05/15 09:00:27;;;;;;;6.25;2.45;;;16.40;60.90;;;;;;5038595;28;20195;-89
2022/05/15 09:02:56;;;;;;;10.40;2.00;;;16.40;61.60;;;;;;5038544;28;20249;-88
2022/05/15 09:05:27;;;;;;;8.95;2.30;;;16.50;59.50;;;;;;5056258;28;20179;-88
2022/05/15 09:08:44;;;;;;;9.98;2.33;;;16.50;59.00;;;;;;5037734;28;20160;-88
2022/05/15 09:11:11;;;;;;;5.75;2.20;;;16.60;60.50;;;;;;5054923;28;20192;-88
2022/05/15 09:13:45;;;;;;;8.10;2.38;;;16.80;60.20;;;;;;5037340;28;20180;-88
2022/05/15 09:16:21;;;;;;;5.97;2.20;;;17.00;59.90;;;;;;5054315;28;20172;-89
2022/05/15 09:18:46;;;;;;;9.35;2.70;;;16.90;57.40;;;;;;5037157;28;20168;-93
2022/05/15 09:21:15;;;;;;;8.93;2.15;;;17.00;56.50;;;;;;5036269;28;20322;-91
2022/05/15 09:23:53;;;;;;;9.60;2.40;;;16.90;54.50;;;;;;5038332;28;20687;-91
2022/05/15 09:26:25;;;;;;;5.00;2.17;;;17.10;54.40;;;;;;5037492;28;20183;-89
2022/05/15 09:29:01;;;;;;;9.10;2.47;;;17.30;55.90;;;;;;5037772;28;20176;-90
2022/05/15 09:31:28;;;;;;;5.90;2.08;;;17.30;55.70;;;;;;5038552;28;20278;-90
2022/05/15 09:34:01;;;;;;;6.07;1.80;;;17.50;55.50;;;;;;5054722;28;20655;-89
2022/05/15 09:36:39;;;;;;;7.65;1.73;;;17.60;52.30;;;;;;5054661;28;20171;-89
2022/05/15 09:39:20;;;;;;;6.10;1.90;;;17.60;53.20;;;;;;5037092;28;20174;-88
2022/05/15 09:44:46;;;;;;;6.47;1.80;;;17.90;53.10;;;;;;5055043;28;20567;-88
2022/05/15 09:47:32;;;;;;;8.13;3.10;;;17.90;52.00;;;;;;5054113;28;20168;-89
2022/05/15 09:49:58;;;;;;;5.72;1.90;;;17.90;55.00;;;;;;5054335;28;20195;-89
2022/05/15 09:52:35;;;;;;;4.00;1.75;;;17.60;52.90;;;;;;5054147;28;20168;-88
2022/05/15 09:55:22;;;;;;;6.22;2.22;;;17.90;52.90;;;;;;5037051;28;20191;-88
2022/05/15 09:57:59;;;;;;;5.00;1.90;;;18.20;53.00;;;;;;5036224;28;20240;-87
2022/05/15 10:00:27;;;;;;;5.82;1.85;;;18.20;51.10;;;;;;5036049;28;20665;-88
2022/05/15 10:02:58;;;;;;;5.20;1.77;;;18.20;51.30;;;;;;5053374;28;20553;-88
2022/05/15 10:05:30;;;;;;;5.63;2.20;;;18.50;53.40;;;;;;5035346;28;20622;-89
2022/05/15 10:08:09;;;;;;;4.95;1.70;;;18.70;50.80;;;;;;5035457;28;20221;-87
2022/05/15 10:10:41;;;;;;;6.75;2.50;;;18.80;50.90;;;;;;5036254;28;20704;-87
2022/05/15 10:13:31;;;;;;;7.03;2.00;;;18.70;49.20;;;;;;5036823;28;20176;-88
2022/05/15 10:16:03;;;;;;;4.53;1.85;;;18.60;49.00;;;;;;5054269;28;20246;-88
2022/05/15 10:18:34;;;;;;;4.28;1.77;;;18.30;52.50;;;;;;5036871;28;20580;-90
2022/05/15 10:21:01;;;;;;;3.28;1.67;;;18.30;50.90;;;;;;5036498;28;20211;-91
2022/05/15 10:23:30;;;;;;;6.22;1.90;;;18.50;51.50;;;;;;5036523;28;20250;-91
2022/05/15 10:26:08;;;;;;;3.58;1.60;;;18.80;49.50;;;;;;5054517;28;20175;-91
2022/05/15 10:28:50;;;;;;;4.95;1.85;;;18.90;50.20;;;;;;5036912;28;20532;-92
2022/05/15 10:31:37;;;;;;;6.53;1.77;;;18.80;49.10;;;;;;5036302;28;20665;-91
2022/05/15 10:34:11;;;;;;;3.72;1.55;;;18.60;49.10;;;;;;5035891;28;20180;-92
2022/05/15 10:36:54;;;;;;;4.10;1.73;;;19.00;51.50;;;;;;5035471;28;20167;-92
2022/05/15 10:39:48;;;;;;;2.60;1.73;;;19.20;48.30;;;;;;5035414;28;20176;-92
2022/05/15 10:42:43;;;;;;;2.47;1.50;;;19.30;47.70;;;;;;5052415;28;20212;-92
2022/05/15 10:45:30;;;;;;;4.55;1.95;;;19.10;47.00;;;;;;5052430;28;20574;-91
2022/05/15 10:48:21;;;;;;;2.00;1.63;;;19.50;49.10;;;;;;5036780;28;20182;-92
2022/05/15 10:51:27;;;;;;;5.60;2.78;;;19.70;49.40;;;;;;5035544;28;20302;-93
2022/05/15 10:57:29;;;;;;;5.53;1.80;;;20.40;45.80;;;;;;5059637;28;20195;-90
2022/05/15 11:00:05;;;;;;;3.85;1.55;;;20.70;44.50;;;;;;5038910;28;20191;-91
2022/05/15 11:03:00;;;;;;;3.58;1.75;;;20.50;45.40;;;;;;5039570;28;20259;-89
2022/05/15 11:05:28;;;;;;;3.80;1.65;;;20.20;45.50;;;;;;5055182;28;20180;-89
2022/05/15 11:07:58;;;;;;;2.42;1.42;;;20.30;45.40;;;;;;5056728;28;20172;-89
2022/05/15 11:10:33;;;;;;;7.05;2.00;;;20.20;45.10;;;;;;5039418;28;20549;-87
2022/05/15 11:13:17;;;;;;;2.95;1.70;;;19.80;46.00;;;;;;5055768;28;20175;-89
2022/05/15 11:15:57;;;;;;;4.43;1.95;;;20.40;45.50;;;;;;5055419;28;20704;-89
2022/05/15 11:18:40;;;;;;;4.93;1.80;;;20.20;44.30;;;;;;5039487;28;20183;-88
2022/05/15 11:21:45;;;;;;;3.47;1.48;;;20.00;46.50;;;;;;5056626;28;20195;-89
2022/05/15 11:24:38;;;;;;;2.92;1.45;;;20.00;44.90;;;;;;5027381;28;20215;-89
2022/05/15 11:27:41;;;;;;;4.70;1.50;;;20.20;45.80;;;;;;5057260;28;20180;-90
2022/05/15 11:30:26;;;;;;;5.55;1.75;;;20.20;47.30;;;;;;5060510;28;20196;-90
2022/05/15 11:32:52;;;;;;;3.53;1.70;;;20.70;49.20;;;;;;5043181;28;20168;-90
2022/05/15 11:35:17;;;;;;;4.35;1.80;;;21.10;46.00;;;;;;5058260;28;20175;-90
2022/05/15 11:38:05;;;;;;;5.43;1.95;;;21.20;42.90;;;;;;5058105;28;20172;-91
2022/05/15 11:40:52;;;;;;;5.93;2.00;;;21.70;44.60;;;;;;5057258;28;20615;-88
2022/05/15 11:43:26;;;;;;;4.20;1.80;;;21.70;43.50;;;;;;5059424;28;20207;-89
2022/05/15 11:46:12;;;;;;;4.93;1.50;;;21.70;46.00;;;;;;5059009;28;20202;-89
2022/05/15 11:48:37;;;;;;;4.10;1.73;;;21.20;45.30;;;;;;5057751;28;20184;-88
2022/05/15 11:51:10;;;;;;;4.45;1.67;;;21.10;49.10;;;;;;5057775;28;20558;-88
2022/05/15 11:53:48;;;;;;;3.97;1.67;;;20.40;46.70;;;;;;5056865;28;20168;-88
2022/05/15 11:56:32;;;;;;;4.97;1.75;;;21.50;45.50;;;;;;5056949;28;20188;-89
2022/05/15 11:59:14;;;;;;;4.43;2.13;;;21.60;45.40;;;;;;5055621;28;20239;-88
2022/05/15 12:01:40;;;;;;;5.93;1.92;;;21.70;45.50;;;;;;5055998;28;20195;-89
2022/05/15 12:04:25;;;;;;;3.13;1.95;;;21.10;47.10;;;;;;5055278;28;20269;-88
2022/05/15 12:06:57;;;;;;;5.45;1.70;;;21.10;46.60;;;;;;5056179;28;20218;-89
2022/05/15 12:09:25;;;;;;;5.95;2.00;;;21.20;46.60;;;;;;5055621;28;20176;-89
2022/05/15 12:11:54;;;;;;;7.65;1.77;;;21.60;47.60;;;;;;5055210;28;20188;-89
2022/05/15 12:14:26;;;;;;;4.97;1.55;;;21.60;46.40;;;;;;5055113;28;20661;-88
2022/05/15 12:17:16;;;;;;;13.48;6.82;;;21.60;45.30;;;;;;5055060;28;20229;-89
2022/05/15 12:19:44;;;;;;;6.47;2.03;;;22.10;43.50;;;;;;5055627;28;20172;-88
2022/05/15 12:22:13;;;;;;;5.47;2.25;;;21.40;44.10;;;;;;5038847;28;20272;-90
2022/05/15 12:24:44;;;;;;;5.15;1.75;;;21.20;45.60;;;;;;5038815;28;20207;-90
2022/05/15 12:27:26;;;;;;;6.15;1.77;;;21.80;46.10;;;;;;5039237;28;20173;-90
2022/05/15 12:30:10;;;;;;;4.45;1.90;;;22.60;44.50;;;;;;5038367;28;20593;-91
2022/05/15 12:32:42;;;;;;;5.00;1.80;;;23.20;42.20;;;;;;5038001;28;20172;-90
2022/05/15 12:35:33;;;;;;;5.30;1.80;;;22.90;42.40;;;;;;5054331;28;20176;-90
2022/05/15 12:38:05;;;;;;;5.95;2.13;;;22.80;41.30;;;;;;5056112;28;20160;-90
2022/05/15 12:40:37;;;;;;;5.68;1.85;;;22.30;43.00;;;;;;5055566;28;20191;-90
2022/05/15 12:43:27;;;;;;;5.03;1.98;;;22.40;44.90;;;;;;5037664;28;20199;-90
2022/05/15 12:45:53;;;;;;;3.85;1.90;;;22.30;40.90;;;;;;5038068;28;20165;-91
2022/05/15 12:48:19;;;;;;;5.57;1.77;;;22.30;42.80;;;;;;5056098;28;20168;-90
2022/05/15 12:51:16;;;;;;;3.97;1.70;;;21.40;42.70;;;;;;5038057;28;20552;-90
2022/05/15 12:53:48;;;;;;;9.43;2.17;;;21.40;44.90;;;;;;5029498;28;20234;-90
2022/05/15 12:56:18;;;;;;;4.03;2.00;;;22.20;46.30;;;;;;5037940;28;20254;-90
2022/05/15 12:58:58;;;;;;;5.03;2.10;;;22.40;46.40;;;;;;5037795;28;20180;-90
2022/05/15 13:01:28;;;;;;;4.00;1.73;;;22.80;44.50;;;;;;5037812;28;20195;-90
2022/05/15 13:03:56;;;;;;;5.90;1.80;;;22.60;43.50;;;;;;5037693;28;20294;-90
2022/05/15 13:06:31;;;;;;;5.22;2.05;;;22.80;46.50;;;;;;5037882;28;20547;-90
2022/05/15 13:09:01;;;;;;;6.70;1.80;;;23.30;44.10;;;;;;5056648;28;20183;-90
2022/05/15 13:11:41;;;;;;;6.10;2.13;;;24.00;42.70;;;;;;5037522;28;20283;-91
2022/05/15 13:14:23;;;;;;;5.68;1.70;;;24.10;39.20;;;;;;5036989;28;20198;-90
2022/05/15 13:16:52;;;;;;;5.68;2.03;;;23.80;40.10;;;;;;5037063;28;20173;-90
2022/05/15 13:19:27;;;;;;;7.93;2.15;;;23.60;40.20;;;;;;5054237;28;20169;-90